Time;durP1;ratioP1;P1;durP2;ratioP2;P2;SDS_P1;SDS_P2;PMS_P1;PMS_P2;Temp;Humidity;BMP_temperature;BMP_pressure;BME280_temperature;BME280_humidity;BME280_pressure;Samples;Min_cycle;Max_cycle;Signal;HPM_P1;HPM_P2
2021/08/20 00:00:17;;;;;;;8.00;4.60;;;;;;;13.20;80.42;94728.45;1583657;90;21030;-55
2021/08/20 00:02:45;;;;;;;5.42;4.17;;;;;;;13.14;80.35;94735.84;1583771;90;21114;-55
2021/08/20 00:05:13;;;;;;;6.42;4.90;;;;;;;13.06;80.37;94736.78;1583673;90;20982;-55
2021/08/20 00:07:42;;;;;;;7.35;4.70;;;;;;;12.97;80.65;94731.88;1583727;90;21442;-55
2021/08/20 00:10:11;;;;;;;8.65;5.05;;;;;;;12.89;81.08;94727.89;1583842;90;21012;-56
2021/08/20 00:12:40;;;;;;;7.45;4.33;;;;;;;12.87;81.28;94725.58;1589458;89;21010;-55
2021/08/20 00:15:10;;;;;;;6.22;4.35;;;;;;;12.86;81.38;94726.05;1590326;90;21522;-55
2021/08/20 00:17:38;;;;;;;7.17;5.10;;;;;;;12.82;81.22;94720.69;1590283;90;21083;-55
2021/08/20 00:20:08;;;;;;;6.58;4.80;;;;;;;12.76;81.32;94719.77;1590312;90;21021;-55
2021/08/20 00:22:36;;;;;;;4.60;4.20;;;;;;;12.70;81.51;94720.84;1590171;90;21094;-55
2021/08/20 00:25:05;;;;;;;5.45;4.30;;;;;;;12.66;81.70;94716.08;1590343;90;21046;-55
2021/08/20 00:27:32;;;;;;;6.40;4.33;;;;;;;12.64;81.61;94714.39;1567630;90;21051;-55
2021/08/20 00:30:00;;;;;;;6.12;4.60;;;;;;;12.62;81.57;94716.84;1590593;89;21092;-55
2021/08/20 00:32:27;;;;;;;7.28;4.75;;;;;;;12.59;81.49;94715.02;1590228;90;21235;-56
2021/08/20 00:34:56;;;;;;;8.38;4.90;;;;;;;12.56;81.40;94715.94;1590222;90;20962;-56
2021/08/20 00:37:22;;;;;;;5.87;4.20;;;;;;;12.49;81.53;94713.47;1567376;90;21538;-55
2021/08/20 00:39:49;;;;;;;4.95;4.28;;;;;;;12.43;81.45;94721.47;1590234;90;21054;-56
2021/08/20 00:42:16;;;;;;;8.90;4.47;;;;;;;12.39;81.67;94720.23;1590328;90;21045;-55
2021/08/20 00:44:43;;;;;;;6.08;4.80;;;;;;;12.38;81.74;94718.70;1590238;90;21165;-55
2021/08/20 00:47:10;;;;;;;4.83;4.37;;;;;;;12.37;81.76;94713.02;1590270;90;20991;-55
2021/08/20 00:49:37;;;;;;;5.42;4.42;;;;;;;12.35;81.81;94709.96;1590227;89;21073;-56
2021/08/20 00:52:06;;;;;;;7.33;4.60;;;;;;;12.28;81.72;94711.63;1590232;90;20997;-56
2021/08/20 00:54:32;;;;;;;7.78;4.60;;;;;;;12.17;81.83;94705.80;1567206;90;21482;-56
2021/08/20 00:57:02;;;;;;;8.70;4.28;;;;;;;12.12;82.32;94698.75;1567621;90;20987;-55
2021/08/20 00:59:29;;;;;;;8.10;4.60;;;;;;;12.12;82.51;94706.39;1567664;90;21042;-55
2021/08/20 01:01:57;;;;;;;9.18;5.08;;;;;;;12.08;82.62;94708.53;1590312;89;21570;-55
2021/08/20 01:04:24;;;;;;;10.35;5.83;;;;;;;12.03;82.93;94711.91;1590224;90;21002;-55
2021/08/20 01:06:55;;;;;;;7.45;4.97;;;;;;;12.03;83.09;94702.25;1590487;89;21031;-56
2021/08/20 01:09:23;;;;;;;5.25;4.30;;;;;;;12.03;83.23;94698.72;1590318;90;21185;-55
2021/08/20 01:11:51;;;;;;;5.90;4.42;;;;;;;12.01;83.10;94699.79;1587603;89;21027;-55
2021/08/20 01:14:34;;;;;;;5.50;4.58;;;;;;;11.94;83.14;94700.84;1583686;90;21094;-55
2021/08/20 01:17:04;;;;;;;5.37;4.85;;;;;;;11.92;83.32;94711.56;1583668;90;21086;-56
2021/08/20 01:19:34;;;;;;;8.33;4.75;;;;;;;11.91;83.28;94701.77;1583713;90;20998;-56
2021/08/20 01:22:01;;;;;;;6.53;4.97;;;;;;;11.92;83.17;94701.91;1583938;90;21138;-56
2021/08/20 01:24:32;;;;;;;5.00;4.50;;;;;;;11.90;82.92;94708.50;1558201;90;21036;-57
2021/08/20 01:27:00;;;;;;;7.97;5.28;;;;;;;11.89;82.84;94703.45;1583713;90;21455;-56
2021/08/20 01:29:29;;;;;;;5.20;4.40;;;;;;;11.89;82.63;94706.97;1583716;90;21050;-56
2021/08/20 01:31:58;;;;;;;8.40;5.03;;;;;;;11.86;82.58;94700.24;1557962;90;21033;-56
2021/08/20 01:34:24;;;;;;;5.25;4.75;;;;;;;11.86;82.47;94705.13;1583739;90;21178;-57
2021/08/20 01:36:54;;;;;;;5.10;4.60;;;;;;;11.82;82.24;94701.75;1583655;90;20990;-56
2021/08/20 01:39:21;;;;;;;5.35;4.85;;;;;;;11.77;82.18;94699.61;1583635;90;20994;-56
2021/08/20 01:41:47;;;;;;;8.60;4.87;;;;;;;11.75;82.17;94706.16;1583643;89;21038;-55
2021/08/20 01:44:15;;;;;;;7.15;4.70;;;;;;;11.71;82.32;94698.66;1557348;90;21133;-56
2021/08/20 01:46:43;;;;;;;6.75;5.28;;;;;;;11.70;82.68;94701.25;1583677;89;20971;-55
2021/08/20 01:49:10;;;;;;;6.58;4.33;;;;;;;11.68;82.77;94696.81;1583588;90;21519;-55
2021/08/20 01:51:39;;;;;;;6.25;4.65;;;;;;;11.64;82.87;94700.92;1583715;90;21015;-54
2021/08/20 01:54:06;;;;;;;8.53;5.12;;;;;;;11.60;83.37;94698.33;1583917;90;21034;-55
2021/08/20 01:56:35;;;;;;;6.42;4.47;;;;;;;11.58;83.44;94700.00;1588730;90;21572;-54
2021/08/20 01:59:06;;;;;;;5.50;4.95;;;;;;;11.58;83.45;94702.16;1583237;90;21196;-54
2021/08/20 02:01:35;;;;;;;10.18;4.78;;;;;;;11.55;83.16;94698.88;1583608;90;21066;-54
2021/08/20 02:04:04;;;;;;;6.05;4.95;;;;;;;11.51;83.17;94698.88;1583742;90;21035;-55
2021/08/20 02:06:33;;;;;;;6.40;4.40;;;;;;;11.51;83.29;94703.77;1583663;90;21022;-55
2021/08/20 02:09:02;;;;;;;5.15;4.65;;;;;;;11.52;83.12;94699.03;1583726;90;21053;-56
2021/08/20 02:11:30;;;;;;;7.58;5.58;;;;;;;11.50;83.11;94704.98;1584581;89;21815;-56
2021/08/20 02:13:59;;;;;;;6.08;4.70;;;;;;;11.45;83.44;94695.95;1590159;90;21030;-55
2021/08/20 02:16:27;;;;;;;9.48;5.08;;;;;;;11.44;83.53;94695.01;1590166;90;21042;-55
2021/08/20 02:18:55;;;;;;;10.90;5.65;;;;;;;11.42;83.43;94702.37;1590196;90;21070;-55
2021/08/20 02:21:23;;;;;;;7.22;4.75;;;;;;;11.37;83.39;94696.67;1590606;90;21503;-56
2021/08/20 02:23:52;;;;;;;5.95;4.92;;;;;;;11.34;83.53;94698.34;1590340;89;21162;-56
2021/08/20 02:26:21;;;;;;;8.90;4.87;;;;;;;11.30;83.50;94699.09;1590304;89;20918;-55
2021/08/20 02:28:48;;;;;;;7.85;5.17;;;;;;;11.24;83.55;94702.28;1590420;90;21090;-55
2021/08/20 02:31:14;;;;;;;5.70;5.10;;;;;;;11.18;83.64;94713.71;1590640;90;21503;-55
2021/08/20 02:33:45;;;;;;;6.03;4.20;;;;;;;11.13;84.02;94705.30;1590328;90;21042;-56
2021/08/20 02:36:12;;;;;;;5.12;4.62;;;;;;;11.14;84.14;94702.70;1590590;90;21155;-56
2021/08/20 02:38:39;;;;;;;7.50;4.92;;;;;;;11.13;84.13;94703.30;1590199;90;21502;-55
2021/08/20 02:41:06;;;;;;;16.15;5.05;;;;;;;11.12;84.15;94704.52;1590320;88;21022;-55
2021/08/20 02:43:33;;;;;;;9.88;5.10;;;;;;;11.09;84.35;94704.64;1590310;90;21035;-56
2021/08/20 02:46:01;;;;;;;5.72;4.53;;;;;;;11.08;84.18;94708.02;1590413;90;21026;-55
2021/08/20 02:48:28;;;;;;;7.50;5.12;;;;;;;11.05;84.17;94714.43;1590274;88;21167;-56
2021/08/20 02:50:57;;;;;;;15.93;6.33;;;;;;;11.00;84.25;94709.48;1590347;89;21042;-56
2021/08/20 02:53:25;;;;;;;9.35;5.33;;;;;;;10.95;84.46;94703.81;1590295;90;21126;-55
2021/08/20 02:55:54;;;;;;;5.75;4.83;;;;;;;10.95;84.60;94716.95;1590333;90;21099;-56
2021/08/20 02:58:21;;;;;;;7.12;5.17;;;;;;;10.94;84.51;94703.63;1590311;90;20998;-55
2021/08/20 03:00:52;;;;;;;12.10;5.45;;;;;;;10.91;84.31;94708.07;1589862;90;21967;-56
2021/08/20 03:03:19;;;;;;;8.15;4.55;;;;;;;10.90;84.41;94707.91;1590314;90;21184;-55
2021/08/20 03:05:46;;;;;;;14.83;5.87;;;;;;;10.89;84.20;94708.34;1590266;90;21505;-55
2021/08/20 03:08:12;;;;;;;11.40;4.97;;;;;;;10.90;84.36;94712.05;1590298;90;21039;-56
2021/08/20 03:10:42;;;;;;;11.15;5.37;;;;;;;10.94;84.33;94708.55;1590307;90;20998;-56
2021/08/20 03:13:09;;;;;;;6.83;4.50;;;;;;;10.96;84.12;94708.10;1589732;90;21757;-56
2021/08/20 03:15:37;;;;;;;6.22;4.67;;;;;;;10.94;83.79;94712.67;1577366;91;21103;-56
2021/08/20 03:18:04;;;;;;;6.25;4.75;;;;;;;10.89;83.54;94716.02;1589587;90;21634;-56
2021/08/20 03:20:33;;;;;;;7.78;4.92;;;;;;;10.85;83.53;94712.63;1577492;91;21007;-55
2021/08/20 03:23:01;;;;;;;9.70;4.80;;;;;;;10.85;83.62;94715.38;1589825;90;20999;-55
2021/08/20 03:25:28;;;;;;;12.20;5.62;;;;;;;10.83;83.68;94715.04;1577408;91;21148;-55
2021/08/20 03:27:55;;;;;;;7.58;5.80;;;;;;;10.82;83.65;94712.13;1589323;90;21079;-56
2021/08/20 03:30:29;;;;;;;8.43;4.60;;;;;;;10.79;83.72;94718.53;1576497;91;21047;-56
2021/08/20 03:32:59;;;;;;;7.55;5.08;;;;;;;10.76;83.69;94720.81;1589168;90;21523;-55
2021/08/20 03:35:26;;;;;;;32.03;7.53;;;;;;;10.78;83.78;94726.63;1577356;91;21062;-56
2021/08/20 03:37:58;;;;;;;17.52;6.28;;;;;;;10.78;83.77;94726.63;1589401;89;21247;-56
2021/08/20 03:40:27;;;;;;;9.00;5.97;;;;;;;10.80;83.95;94725.56;1577118;91;21050;-56
2021/08/20 03:42:56;;;;;;;9.83;4.78;;;;;;;10.84;84.13;94731.70;1589349;90;21078;-56
2021/08/20 03:45:28;;;;;;;5.78;4.90;;;;;;;10.83;83.74;94728.80;1554014;91;21044;-55
2021/08/20 03:47:55;;;;;;;7.22;4.83;;;;;;;10.84;83.60;94738.59;1589642;90;21622;-55
2021/08/20 03:50:21;;;;;;;8.95;5.15;;;;;;;10.89;83.74;94742.75;1577381;91;21148;-56
2021/08/20 03:52:50;;;;;;;7.00;5.28;;;;;;;10.93;83.68;94738.66;1589316;90;21024;-56
2021/08/20 03:55:17;;;;;;;8.35;5.62;;;;;;;10.99;83.34;94743.73;1577394;91;21193;-56
2021/08/20 03:57:49;;;;;;;7.08;4.90;;;;;;;10.95;83.05;94740.98;1586677;90;21035;-59
2021/08/20 04:00:16;;;;;;;16.40;5.53;;;;;;;10.93;83.07;94750.27;1577492;91;21637;-55
2021/08/20 04:02:46;;;;;;;17.25;5.30;;;;;;;10.89;83.30;94751.79;1589371;90;21576;-56
2021/08/20 04:05:13;;;;;;;7.00;5.30;;;;;;;10.80;83.53;94761.34;1589314;90;20999;-56
2021/08/20 04:07:47;;;;;;;11.78;5.28;;;;;;;10.77;83.93;94755.98;1576818;91;21062;-56
2021/08/20 04:10:20;;;;;;;11.48;5.33;;;;;;;10.77;84.06;94764.24;1586765;90;20987;-56
2021/08/20 04:12:54;;;;;;;11.35;5.33;;;;;;;10.74;84.06;94765.90;1579013;90;21468;-56
2021/08/20 04:15:30;;;;;;;7.65;4.87;;;;;;;10.74;84.38;94774.15;1583051;90;21024;-57
2021/08/20 04:17:58;;;;;;;14.18;5.03;;;;;;;10.83;84.61;94774.20;1583969;90;21022;-56
2021/08/20 04:20:27;;;;;;;6.25;5.10;;;;;;;10.93;84.35;94779.16;1583723;90;21606;-56
2021/08/20 04:22:55;;;;;;;6.80;5.22;;;;;;;10.96;84.40;94770.79;1583629;90;21109;-56
2021/08/20 04:25:27;;;;;;;6.53;5.42;;;;;;;11.06;84.14;94769.64;1583836;90;21085;-56
2021/08/20 04:28:01;;;;;;;11.73;6.65;;;;;;;11.16;84.09;94772.59;1579831;90;21177;-56
2021/08/20 04:30:39;;;;;;;12.43;5.85;;;;;;;11.30;83.99;94774.83;1582935;90;21460;-56
2021/08/20 04:33:07;;;;;;;10.90;6.10;;;;;;;11.43;83.87;94774.73;1581693;90;21062;-56
2021/08/20 04:35:52;;;;;;;12.50;8.43;;;;;;;11.51;83.74;94771.27;1583830;90;21039;-56
2021/08/20 04:38:24;;;;;;;27.52;16.20;;;;;;;11.61;83.68;94777.02;1582039;90;20974;-56
2021/08/20 04:40:52;;;;;;;18.23;12.07;;;;;;;11.69;83.50;94765.86;1582039;89;21184;-56
2021/08/20 04:43:26;;;;;;;9.95;7.62;;;;;;;11.78;83.24;94768.67;1582406;90;21467;-55
2021/08/20 04:45:54;;;;;;;12.13;7.35;;;;;;;11.85;82.94;94775.27;1581363;90;20978;-55
2021/08/20 04:48:26;;;;;;;12.70;7.80;;;;;;;11.90;82.98;94774.66;1577846;90;21057;-55
2021/08/20 04:50:55;;;;;;;30.40;10.18;;;;;;;11.97;83.02;94777.75;1558401;91;21002;-57
2021/08/20 04:53:28;;;;;;;13.70;9.68;;;;;;;12.07;82.87;94777.95;1583146;89;21177;-56
2021/08/20 04:55:54;;;;;;;26.87;10.08;;;;;;;12.15;82.40;94775.83;1585017;90;21085;-57
2021/08/20 04:58:22;;;;;;;14.80;8.15;;;;;;;12.20;82.07;94777.98;1583620;90;21079;-56
2021/08/20 05:00:51;;;;;;;13.60;9.35;;;;;;;12.22;81.77;94783.80;1583725;90;21047;-57
2021/08/20 05:03:18;;;;;;;18.32;10.75;;;;;;;12.21;81.74;94773.21;1583824;90;21062;-56
2021/08/20 05:05:45;;;;;;;30.60;11.95;;;;;;;12.25;81.62;94776.61;1583605;90;21167;-57
2021/08/20 05:08:13;;;;;;;10.30;8.28;;;;;;;12.26;81.23;94770.63;1583833;90;21093;-56
2021/08/20 05:10:40;;;;;;;10.65;7.33;;;;;;;12.27;80.74;94770.77;1583600;90;21062;-56
2021/08/20 05:13:07;;;;;;;14.98;7.37;;;;;;;12.28;80.51;94775.06;1583610;90;21053;-57
2021/08/20 05:15:35;;;;;;;10.43;7.05;;;;;;;12.30;80.38;94771.86;1583444;89;21057;-57
2021/08/20 05:18:03;;;;;;;9.55;7.15;;;;;;;12.36;80.24;94770.81;1583582;90;21171;-56
2021/08/20 05:20:30;;;;;;;8.03;6.47;;;;;;;12.42;79.68;94764.83;1614228;89;21471;-57
2021/08/20 05:22:56;;;;;;;13.25;8.98;;;;;;;12.47;79.26;94766.97;1583751;89;21022;-57
2021/08/20 05:25:25;;;;;;;9.35;6.87;;;;;;;12.52;79.10;94765.00;1583388;90;20994;-56
2021/08/20 05:27:52;;;;;;;11.48;7.17;;;;;;;12.58;78.71;94761.18;1583842;90;21042;-56
2021/08/20 05:30:19;;;;;;;14.25;5.85;;;;;;;12.65;78.59;94771.13;1583492;90;21152;-56
2021/08/20 05:32:46;;;;;;;12.90;6.55;;;;;;;12.70;78.29;94771.92;1583685;90;21524;-57
2021/08/20 05:35:13;;;;;;;15.83;7.00;;;;;;;12.74;78.12;94768.38;1583214;89;20974;-56
2021/08/20 05:37:41;;;;;;;28.40;9.83;;;;;;;12.81;78.13;94769.45;1583365;89;21021;-57
2021/08/20 05:40:11;;;;;;;15.40;5.90;;;;;;;12.92;78.12;94764.23;1583303;89;21536;-57
2021/08/20 05:42:38;;;;;;;12.78;6.62;;;;;;;13.05;77.57;94769.02;1584000;90;21209;-56
2021/08/20 05:45:06;;;;;;;10.20;5.58;;;;;;;13.14;77.26;94769.77;1583521;90;21462;-57
2021/08/20 05:47:33;;;;;;;12.07;6.50;;;;;;;13.26;77.08;94771.58;1582717;89;21033;-59
2021/08/20 05:50:00;;;;;;;6.45;5.75;;;;;;;13.33;76.51;94765.75;1600554;87;21513;-56
2021/08/20 05:52:26;;;;;;;21.93;7.03;;;;;;;13.39;76.25;94770.01;1552713;91;21074;-56
2021/08/20 05:54:54;;;;;;;8.30;6.70;;;;;;;13.45;76.27;94769.55;1598505;89;21196;-58
2021/08/20 05:57:21;;;;;;;10.68;5.90;;;;;;;13.56;76.19;94765.06;1544599;91;21107;-58
2021/08/20 05:59:48;;;;;;;13.88;5.65;;;;;;;13.71;75.64;94763.78;1604972;87;21033;-60
2021/08/20 06:02:15;;;;;;;8.80;5.78;;;;;;;13.81;75.14;94763.27;1611578;87;21085;-59
2021/08/20 06:04:42;;;;;;;19.20;6.45;;;;;;;13.89;74.70;94772.00;1565977;90;21096;-57
2021/08/20 06:07:12;;;;;;;14.38;7.95;;;;;;;13.98;74.42;94759.53;1607268;87;21220;-58
2021/08/20 06:09:40;;;;;;;12.43;8.48;;;;;;;14.06;73.99;94759.33;1616870;87;21092;-57
2021/08/20 06:12:08;;;;;;;14.70;7.95;;;;;;;14.14;73.58;94757.77;1558204;89;21105;-59
2021/08/20 06:14:36;;;;;;;14.33;6.90;;;;;;;14.22;73.26;94757.58;1572400;89;21608;-63
2021/08/20 06:17:03;;;;;;;8.00;6.25;;;;;;;14.32;73.15;94764.61;1577847;89;21620;-60
2021/08/20 06:19:32;;;;;;;13.68;6.83;;;;;;;14.41;72.78;94764.54;1579571;89;21127;-60
2021/08/20 06:21:59;;;;;;;12.23;7.00;;;;;;;14.50;72.54;94761.88;1560638;90;21097;-58
2021/08/20 06:24:28;;;;;;;12.53;7.70;;;;;;;14.66;72.55;94756.52;1565513;90;21149;-61
2021/08/20 06:26:56;;;;;;;19.90;7.62;;;;;;;14.83;72.04;94760.39;1577975;89;21119;-57
2021/08/20 06:29:23;;;;;;;12.20;7.15;;;;;;;14.94;71.57;94764.14;1574657;89;21607;-58
2021/08/20 06:31:55;;;;;;;15.23;7.35;;;;;;;15.06;71.44;94764.52;1567445;89;21105;-61
2021/08/20 06:34:24;;;;;;;10.60;5.97;;;;;;;15.20;71.22;94763.74;1567733;90;21164;-64
2021/08/20 06:36:53;;;;;;;18.67;7.62;;;;;;;15.35;70.93;94756.87;1582046;90;21707;-56
2021/08/20 06:39:22;;;;;;;15.65;6.47;;;;;;;15.46;70.61;94755.67;1553976;88;21610;-60
2021/08/20 06:41:51;;;;;;;14.13;5.87;;;;;;;15.60;70.29;94762.63;1532279;90;21189;-59
2021/08/20 06:44:17;;;;;;;13.80;6.42;;;;;;;15.75;70.06;94761.97;1574815;90;21284;-57
2021/08/20 06:46:44;;;;;;;11.25;6.17;;;;;;;15.87;69.55;94755.36;1565595;89;21643;-59
2021/08/20 06:49:13;;;;;;;8.58;5.62;;;;;;;16.00;69.57;94762.77;1578075;89;21073;-59
2021/08/20 06:51:40;;;;;;;11.18;5.55;;;;;;;16.14;68.66;94758.42;1574975;89;21052;-56
2021/08/20 06:54:07;;;;;;;9.23;5.45;;;;;;;16.22;68.65;94755.38;1587790;89;21085;-61
2021/08/20 06:56:34;;;;;;;7.50;4.67;;;;;;;16.33;67.78;94758.45;1577442;88;21184;-58
2021/08/20 06:59:06;;;;;;;6.83;5.20;;;;;;;16.39;67.06;94758.57;1556601;89;21059;-58
2021/08/20 07:01:37;;;;;;;9.90;5.40;;;;;;;16.43;66.68;94752.96;1597270;88;21119;-57
2021/08/20 07:04:04;;;;;;;16.97;6.03;;;;;;;16.48;66.38;94750.88;1592924;88;21164;-60
2021/08/20 07:06:33;;;;;;;18.42;5.60;;;;;;;16.56;66.02;94749.20;1600315;88;21057;-60
2021/08/20 07:09:01;;;;;;;8.68;4.80;;;;;;;16.66;65.79;94746.44;1580122;89;21182;-59
2021/08/20 07:11:32;;;;;;;7.40;5.30;;;;;;;16.74;65.13;94741.23;1598549;88;21120;-57
2021/08/20 07:14:06;;;;;;;7.97;5.40;;;;;;;16.82;64.46;94745.11;1579241;89;21105;-58
2021/08/20 07:16:35;;;;;;;15.20;5.78;;;;;;;16.91;64.42;94747.11;1577863;89;21124;-58
2021/08/20 07:19:06;;;;;;;14.85;4.95;;;;;;;17.02;64.22;94743.70;1582139;89;21392;-59
2021/08/20 07:21:36;;;;;;;17.35;7.00;;;;;;;17.13;63.93;94748.00;1578575;89;22436;-60
2021/08/20 07:24:05;;;;;;;13.28;5.10;;;;;;;17.26;63.74;94747.02;1578398;89;22078;-58
2021/08/20 07:26:32;;;;;;;9.60;4.72;;;;;;;17.39;63.16;94746.02;1624489;87;21132;-58
2021/08/20 07:29:04;;;;;;;7.58;4.83;;;;;;;17.52;62.60;94745.02;1581974;88;21087;-58
2021/08/20 07:31:36;;;;;;;7.53;4.65;;;;;;;17.63;62.17;94745.88;1558048;89;21437;-56
2021/08/20 07:34:04;;;;;;;13.78;5.25;;;;;;;17.76;61.97;94751.04;1568187;89;21266;-59
2021/08/20 07:36:33;;;;;;;17.50;5.08;;;;;;;17.92;61.38;94750.42;1576474;89;21084;-60
2021/08/20 07:39:02;;;;;;;6.90;4.33;;;;;;;18.05;60.91;94752.92;1600393;87;21191;-61
2021/08/20 07:41:29;;;;;;;23.32;7.22;;;;;;;18.14;61.00;94744.39;1600193;89;21181;-63
2021/08/20 07:43:59;;;;;;;12.30;5.30;;;;;;;18.24;60.90;94738.78;1588393;89;21160;-59
2021/08/20 07:46:26;;;;;;;15.45;6.87;;;;;;;18.40;60.77;94740.91;1575684;89;21129;-57
2021/08/20 07:48:57;;;;;;;48.98;13.10;;;;;;;18.59;60.49;94740.64;1583434;88;21084;-57
2021/08/20 07:51:24;;;;;;;11.45;5.72;;;;;;;18.80;60.15;94741.39;1598453;88;21079;-59
2021/08/20 07:53:55;;;;;;;16.75;5.35;;;;;;;18.98;58.89;94738.81;1564184;90;21629;-58
2021/08/20 07:56:25;;;;;;;9.98;5.37;;;;;;;19.08;58.72;94736.70;1578957;88;21167;-59
2021/08/20 07:58:55;;;;;;;64.90;18.10;;;;;;;19.19;58.22;94732.56;1551993;90;21187;-57
2021/08/20 08:01:27;;;;;;;156.97;40.48;;;;;;;19.33;58.76;94732.98;1554370;89;21046;-60
2021/08/20 08:03:58;;;;;;;16.95;8.15;;;;;;;19.50;58.64;94738.58;1577893;89;21622;-58
2021/08/20 08:06:27;;;;;;;9.20;5.00;;;;;;;19.68;58.46;94738.88;1580898;87;21537;-57
2021/08/20 08:08:56;;;;;;;12.58;8.38;;;;;;;19.89;57.80;94733.17;1608263;87;20965;-57
2021/08/20 08:11:30;;;;;;;11.28;4.85;;;;;;;20.07;57.08;94732.70;1622395;87;21633;-59
2021/08/20 08:13:54;;;;;;;239.48;45.23;;;;;;;20.23;56.68;94733.32;1596510;87;21081;-57
2021/08/20 08:16:51;;;;;;;39.30;10.88;;;;;;;20.38;55.49;94728.97;1600747;87;21098;-59
2021/08/20 08:19:27;;;;;;;47.03;11.22;;;;;;;20.47;54.96;94723.12;1621383;87;21064;-59
2021/08/20 08:21:59;;;;;;;28.15;10.03;;;;;;;20.53;54.71;94728.05;1568174;90;21105;-57
2021/08/20 08:24:28;;;;;;;341.50;78.40;;;;;;;20.63;56.02;94724.34;1516222;90;21581;-60
2021/08/20 08:26:58;;;;;;;25.80;9.45;;;;;;;20.76;55.99;94731.56;1567960;90;21133;-57
2021/08/20 08:29:28;;;;;;;7.87;4.70;;;;;;;20.89;54.13;94722.77;1543136;90;21049;-58
2021/08/20 08:31:59;;;;;;;11.93;4.33;;;;;;;20.98;53.21;94719.69;1536201;90;21101;-58
2021/08/20 08:34:26;;;;;;;4.03;3.62;;;;;;;21.04;53.49;94726.64;1567874;90;21201;-58
2021/08/20 08:36:59;;;;;;;6.95;3.92;;;;;;;21.18;52.81;94721.36;1565626;90;22207;-60
2021/08/20 08:39:33;;;;;;;13.58;4.62;;;;;;;21.31;52.49;94723.70;1537351;90;22270;-57
2021/08/20 08:42:01;;;;;;;6.90;4.17;;;;;;;21.45;52.38;94728.87;1569970;90;21118;-58
2021/08/20 08:44:28;;;;;;;11.63;4.60;;;;;;;21.54;52.06;94712.52;1595119;87;21695;-59
2021/08/20 08:46:58;;;;;;;6.80;3.80;;;;;;;21.69;53.21;94714.98;1600401;87;21131;-58
2021/08/20 08:49:26;;;;;;;3.98;3.25;;;;;;;21.86;52.89;94716.38;1607766;87;48485;-57
2021/08/20 08:51:58;;;;;;;11.25;6.42;;;;;;;22.06;52.15;94711.13;1596569;87;21629;-61
2021/08/20 08:54:25;;;;;;;4.35;3.20;;;;;;;22.23;50.98;94711.73;1567449;87;21560;-59
2021/08/20 08:56:56;;;;;;;2.98;2.70;;;;;;;22.38;49.00;94709.97;1597748;87;21197;-61
2021/08/20 08:59:23;;;;;;;5.83;3.15;;;;;;;22.45;48.72;94715.75;1571978;89;21017;-62
2021/08/20 09:01:52;;;;;;;4.47;2.72;;;;;;;22.60;48.52;94710.51;1638652;87;21141;-58
2021/08/20 09:04:22;;;;;;;4.62;2.83;;;;;;;22.76;48.04;94716.59;1585496;89;21101;-58
2021/08/20 09:06:59;;;;;;;4.75;2.50;;;;;;;22.80;46.75;94712.84;1601637;87;21116;-60
2021/08/20 09:09:26;;;;;;;5.15;3.50;;;;;;;22.74;46.90;94714.95;1572191;89;21069;-60
2021/08/20 09:12:06;;;;;;;4.45;3.33;;;;;;;22.66;46.57;94716.81;1596714;87;21121;-63
2021/08/20 09:14:36;;;;;;;9.05;4.60;;;;;;;22.68;46.87;94710.69;1598079;87;22405;-61
2021/08/20 09:17:06;;;;;;;4.22;2.90;;;;;;;22.79;47.19;94712.72;1614515;86;21034;-59
2021/08/20 09:19:35;;;;;;;4.60;2.92;;;;;;;23.01;45.80;94704.03;1577465;87;21393;-59
2021/08/20 09:22:11;;;;;;;5.47;2.50;;;;;;;23.19;46.47;94706.80;1599232;87;21160;-61
2021/08/20 09:24:43;;;;;;;3.58;2.47;;;;;;;23.38;46.08;94704.09;1569959;90;21097;-58
2021/08/20 09:27:21;;;;;;;6.53;2.75;;;;;;;23.56;44.51;94703.98;1543805;92;21178;-59
2021/08/20 09:30:14;;;;;;;3.95;2.58;;;;;;;23.60;43.76;94707.25;1570493;90;21106;-59
2021/08/20 09:32:46;;;;;;;6.67;3.95;;;;;;;23.58;43.64;94710.57;1565771;90;21065;-59
2021/08/20 09:35:13;;;;;;;2.92;2.60;;;;;;;23.63;43.85;94705.54;1540312;90;21129;-60
2021/08/20 09:37:46;;;;;;;3.37;2.75;;;;;;;23.73;44.56;94705.25;1579973;90;20997;-60
2021/08/20 09:40:17;;;;;;;3.42;2.27;;;;;;;23.88;44.58;94711.19;1580003;90;21576;-58
2021/08/20 09:42:48;;;;;;;2.75;2.33;;;;;;;24.11;43.57;94712.34;1581175;90;21092;-58
2021/08/20 09:45:38;;;;;;;3.60;2.35;;;;;;;24.34;43.95;94707.85;1570513;90;21029;-56
2021/08/20 09:48:08;;;;;;;3.47;2.60;;;;;;;24.59;43.19;94709.24;1619993;87;21101;-58
2021/08/20 09:50:40;;;;;;;3.10;2.70;;;;;;;24.82;43.56;94706.11;1566926;89;21054;-59
2021/08/20 09:53:15;;;;;;;4.20;2.30;;;;;;;25.02;42.23;94698.42;1546886;90;22314;-59
2021/08/20 09:55:44;;;;;;;5.20;2.25;;;;;;;25.07;40.62;94702.54;1621109;87;22246;-62
2021/08/20 09:58:13;;;;;;;3.20;2.58;;;;;;;25.04;40.38;94702.86;1619931;88;21144;-59
2021/08/20 10:00:43;;;;;;;3.25;2.02;;;;;;;25.04;40.63;94701.45;1615784;88;21065;-61
2021/08/20 10:03:13;;;;;;;2.40;2.08;;;;;;;25.06;41.19;94703.06;1576363;89;21117;-59
2021/08/20 10:05:40;;;;;;;4.33;2.33;;;;;;;24.96;41.18;94705.56;1591663;87;21230;-58
2021/08/20 10:08:13;;;;;;;1.82;1.72;;;;;;;24.73;41.09;94704.48;1599295;87;21589;-60
2021/08/20 10:10:46;;;;;;;4.78;3.25;;;;;;;24.57;42.37;94697.77;1574156;88;21144;-60
2021/08/20 10:13:20;;;;;;;3.80;2.65;;;;;;;24.52;42.23;94692.98;1586578;89;21586;-58
2021/08/20 10:15:50;;;;;;;;;;;;;;;24.60;43.54;94698.84;1589405;89;21606;-59
2021/08/20 10:18:22;;;;;;;5.35;3.17;;;;;;;24.98;43.22;94694.52;1586547;89;21177;-57
2021/08/20 10:20:50;;;;;;;3.90;2.67;;;;;;;25.11;42.88;94690.95;1570710;91;21088;-58
2021/08/20 10:23:19;;;;;;;7.97;4.70;;;;;;;25.19;42.99;94689.78;1581950;90;21157;-59
2021/08/20 10:25:54;;;;;;;5.03;2.90;;;;;;;25.43;41.74;94695.15;1550630;91;21058;-58
2021/08/20 10:28:24;;;;;;;5.10;3.00;;;;;;;25.65;42.33;94689.69;1571634;90;21150;-58
2021/08/20 10:30:53;;;;;;;3.85;2.42;;;;;;;25.75;41.37;94688.67;1572272;89;21247;-61
2021/08/20 10:33:37;;;;;;;3.30;2.65;;;;;;;25.89;40.43;94695.03;1578274;90;21088;-58
2021/08/20 10:36:09;;;;;;;6.80;3.47;;;;;;;26.30;39.58;94696.56;1549537;90;21137;-57
2021/08/20 10:38:44;;;;;;;5.22;3.27;;;;;;;26.65;39.40;94683.23;1583879;90;21086;-58
2021/08/20 10:41:37;;;;;;;3.70;2.85;;;;;;;26.82;39.00;94693.44;1582756;89;21135;-58
2021/08/20 10:44:22;;;;;;;4.33;2.70;;;;;;;26.78;37.55;94690.21;1584621;89;21538;-57
2021/08/20 10:46:57;;;;;;;12.35;10.90;;;;;;;26.80;37.47;94683.34;1558995;90;21085;-56
2021/08/20 10:49:24;;;;;;;6.25;4.53;;;;;;;27.08;38.50;94674.88;1582833;89;21129;-57
2021/08/20 10:51:59;;;;;;;5.55;3.20;;;;;;;27.44;37.03;94682.68;1582680;90;21110;-59
2021/08/20 10:54:41;;;;;;;4.97;2.50;;;;;;;27.75;36.17;94678.69;1583157;90;21555;-57
2021/08/20 10:57:14;;;;;;;2.60;2.37;;;;;;;27.79;35.65;94683.31;1578560;90;21167;-58
2021/08/20 10:59:46;;;;;;;3.62;2.08;;;;;;;27.74;35.73;94675.77;1569107;91;21081;-58
2021/08/20 11:02:24;;;;;;;4.75;2.33;;;;;;;27.48;35.43;94673.20;1549682;90;21128;-60
2021/08/20 11:05:14;;;;;;;4.30;2.98;;;;;;;27.15;35.97;94672.77;1557071;89;21669;-59
2021/08/20 11:07:47;;;;;;;7.92;3.10;;;;;;;27.03;35.45;94672.20;1579288;89;21132;-60
2021/08/20 11:10:19;;;;;;;3.92;2.65;;;;;;;27.24;36.29;94670.81;1558358;91;21176;-59
2021/08/20 11:12:57;;;;;;;9.75;2.50;;;;;;;27.80;35.58;94667.84;1549150;91;21117;-55
2021/08/20 11:15:32;;;;;;;6.47;2.10;;;;;;;28.47;35.01;94662.33;1595515;89;21082;-60
2021/08/20 11:18:05;;;;;;;3.58;2.12;;;;;;;29.20;34.64;94665.54;1579649;89;21052;-59
2021/08/20 11:20:40;;;;;;;3.37;1.82;;;;;;;29.80;33.24;94666.73;1602982;89;21106;-59
2021/08/20 11:23:17;;;;;;;9.13;1.90;;;;;;;30.33;31.98;94661.60;1573475;89;21200;-57
2021/08/20 11:25:58;;;;;;;2.15;1.62;;;;;;;30.93;30.44;94666.83;1542603;89;21067;-61
2021/08/20 11:28:40;;;;;;;3.33;2.00;;;;;;;31.23;28.74;94665.78;1558256;89;21157;-58
2021/08/20 11:31:10;;;;;;;3.85;2.02;;;;;;;31.22;29.66;94673.55;1577253;89;21129;-59
2021/08/20 11:33:41;;;;;;;3.30;2.20;;;;;;;31.12;29.32;94655.67;1576702;89;21127;-57
2021/08/20 11:36:21;;;;;;;6.83;2.47;;;;;;;31.07;29.64;94666.56;1555554;89;21990;-61
2021/08/20 11:38:56;;;;;;;2.30;1.60;;;;;;;30.96;28.43;94663.47;1603919;87;21104;-59
2021/08/20 11:41:41;;;;;;;3.80;2.00;;;;;;;30.45;29.12;94662.66;1548116;90;21367;-58